Hoyt, Oklahoma
Current Conditions -  °F | °C
As of 12:35 AM on Monday 24 Nov 2014 (Local Time) from KGZL Reporting Station
Overcast Overcast  
Wind Chill: 38°   Ceiling: 7500
Heat Index: 45°   Visibility: 10mi
Dew Point: 36°   Wind: 13mph
Humidity: 71%   Direction: 310°NW
Pressure: 29.72"   Gusts: 18mph
Location:  35.27°N, 95.3°W
Report Text: KGZL 240635Z AUTO 31011G16KT 10SM OVC075 07/02 A2972 RMK AO2
Loading
Personal Weather Stations






























Interactive Weather Map New forecast layout! Learn more

10-Day Weather Forecast

Advertisements
Track Severe Weather on mobile